Time;durP1;ratioP1;P1;durP2;ratioP2;P2;SDS_P1;SDS_P2;PMS_P1;PMS_P2;Temp;Humidity;BMP_temperature;BMP_pressure;BME280_temperature;BME280_humidity;BME280_pressure;Samples;Min_cycle;Max_cycle;Signal;HPM_P1;HPM_P2
2024/03/28 00:01:45;;;;;;;13.10;2.90;;;;;;;10.47;76.38;94447.21;108375;1279;23404;-73
2024/03/28 00:04:21;;;;;;;9.60;2.80;;;;;;;10.55;76.68;94445.30;108436;1277;22548;-73
2024/03/28 00:06:52;;;;;;;9.00;3.00;;;;;;;10.59;76.59;94449.75;108385;1258;24217;-73
2024/03/28 00:09:23;;;;;;;14.30;6.00;;;;;;;10.60;76.56;94457.50;108372;1278;24260;-73
2024/03/28 00:11:56;;;;;;;11.30;5.10;;;;;;;10.56;76.41;94450.94;108370;1278;22539;-73
2024/03/28 00:14:28;;;;;;;18.40;4.70;;;;;;;10.55;76.57;94439.23;108353;1278;22529;-73
2024/03/28 00:17:00;;;;;;;13.00;4.00;;;;;;;10.59;76.69;94430.71;108424;1278;25859;-73
2024/03/28 00:19:31;;;;;;;12.00;4.80;;;;;;;10.59;76.65;94422.95;108395;1278;22572;-73
2024/03/28 00:22:04;;;;;;;15.40;4.00;;;;;;;10.58;76.59;94411.34;108386;1266;25250;-73
2024/03/28 00:24:37;;;;;;;11.10;3.90;;;;;;;10.59;76.67;94423.26;108364;1271;22519;-73
2024/03/28 00:27:08;;;;;;;12.70;3.70;;;;;;;10.55;76.44;94425.36;108352;1276;22547;-73
2024/03/28 00:29:39;;;;;;;13.90;5.10;;;;;;;10.41;76.44;94415.33;108386;1277;22530;-73
2024/03/28 00:32:09;;;;;;;11.00;4.30;;;;;;;10.40;76.90;94414.23;108405;1277;23860;-73
2024/03/28 00:34:42;;;;;;;13.00;4.30;;;;;;;10.48;77.13;94412.45;108348;1277;23745;-73
2024/03/28 00:37:13;;;;;;;14.60;4.00;;;;;;;10.58;77.12;94407.38;108379;1277;22527;-73
2024/03/28 00:39:49;;;;;;;11.70;3.70;;;;;;;10.60;77.02;94402.23;108428;1277;22521;-73
2024/03/28 00:42:22;;;;;;;10.40;4.20;;;;;;;10.49;76.67;94398.85;108349;1272;22637;-73
2024/03/28 00:44:56;;;;;;;15.20;4.30;;;;;;;10.40;76.84;94398.86;108351;1277;22519;-73
2024/03/28 00:47:30;;;;;;;14.40;4.00;;;;;;;10.40;77.33;94397.43;108413;1277;26570;-73
2024/03/28 00:50:05;;;;;;;12.80;4.60;;;;;;;10.52;77.57;94393.50;108367;1276;27466;-73
2024/03/28 00:52:36;;;;;;;18.60;5.60;;;;;;;10.59;77.56;94383.52;108397;1277;22541;-73
2024/03/28 00:55:07;;;;;;;15.50;5.70;;;;;;;10.60;77.52;94378.54;108368;1271;26630;-73
2024/03/28 00:57:39;;;;;;;17.80;5.50;;;;;;;10.59;77.47;94369.71;108364;1276;22531;-73
2024/03/28 01:00:11;;;;;;;22.00;4.70;;;;;;;10.59;77.53;94366.56;108420;1271;22803;-73
2024/03/28 01:02:44;;;;;;;21.60;5.00;;;;;;;10.70;77.70;94362.70;108366;1278;23859;-73
2024/03/28 01:05:15;;;;;;;22.80;5.30;;;;;;;10.78;77.66;94367.08;108312;1272;22521;-73
2024/03/28 01:07:48;;;;;;;20.60;5.60;;;;;;;11.05;78.03;94364.46;108357;1272;22725;-73
2024/03/28 01:10:22;;;;;;;23.50;5.70;;;;;;;11.35;77.66;94372.06;108430;1277;22563;-73
2024/03/28 01:12:52;;;;;;;19.30;4.70;;;;;;;11.55;77.08;94371.25;108378;1277;22842;-73
2024/03/28 01:15:23;;;;;;;22.80;7.10;;;;;;;11.75;76.92;94367.15;108415;1271;22523;-73
2024/03/28 01:17:55;;;;;;;26.60;5.50;;;;;;;11.88;76.29;94364.11;108377;1276;22516;-73
2024/03/28 01:20:29;;;;;;;26.50;7.40;;;;;;;11.92;75.90;94372.00;108415;1272;22538;-73
2024/03/28 01:23:02;;;;;;;31.50;6.70;;;;;;;11.96;75.63;94366.71;108401;1271;24250;-73
2024/03/28 01:25:34;;;;;;;24.70;6.60;;;;;;;12.01;75.40;94367.00;108393;1273;23318;-73
2024/03/28 01:28:05;;;;;;;29.30;7.30;;;;;;;12.06;75.08;94365.96;108411;1277;25415;-73
2024/03/28 01:30:38;;;;;;;29.80;6.80;;;;;;;12.17;74.93;94355.02;108390;1277;24233;-73
2024/03/28 01:33:10;;;;;;;24.90;6.90;;;;;;;12.24;74.47;94347.36;108376;1277;24220;-74
2024/03/28 01:35:41;;;;;;;33.20;6.60;;;;;;;12.32;74.13;94339.22;108320;1272;22521;-74
2024/03/28 01:38:13;;;;;;;27.30;6.00;;;;;;;12.46;73.57;94337.80;108375;1277;22537;-74
2024/03/28 01:40:50;;;;;;;32.70;6.70;;;;;;;12.63;73.18;94335.89;108416;1277;22605;-73
2024/03/28 01:43:23;;;;;;;28.70;6.90;;;;;;;12.71;72.70;94335.39;108360;1271;26522;-74
2024/03/28 01:46:02;;;;;;;28.10;7.80;;;;;;;12.72;72.35;94342.23;108398;1271;22534;-73
2024/03/28 01:48:34;;;;;;;35.70;8.50;;;;;;;12.75;72.30;94342.31;108394;1277;23728;-73
2024/03/28 01:51:07;;;;;;;24.70;7.00;;;;;;;12.75;71.98;94350.75;108383;1272;25106;-74
2024/03/28 01:53:41;;;;;;;20.00;5.20;;;;;;;12.76;71.81;94350.30;108426;1278;22555;-73
2024/03/28 01:56:14;;;;;;;23.60;6.70;;;;;;;12.76;71.58;94349.23;108378;1277;22527;-74
2024/03/28 01:58:45;;;;;;;30.00;7.60;;;;;;;12.72;71.52;94344.38;108370;1278;25455;-73
2024/03/28 02:01:18;;;;;;;30.50;7.20;;;;;;;12.73;71.42;94341.98;108331;1276;23896;-73
2024/03/28 02:03:52;;;;;;;28.00;7.10;;;;;;;12.75;71.19;94354.31;108342;1277;22519;-73
2024/03/28 02:06:22;;;;;;;30.90;6.30;;;;;;;12.75;70.90;94355.16;108285;1277;25420;-73
2024/03/28 02:08:54;;;;;;;33.50;7.70;;;;;;;12.82;70.57;94353.33;108331;1277;22523;-73
2024/03/28 02:11:26;;;;;;;30.30;6.70;;;;;;;12.88;70.42;94356.88;108365;1273;24175;-74
2024/03/28 02:14:02;;;;;;;28.80;6.80;;;;;;;12.90;69.95;94357.30;108313;1274;23600;-73
2024/03/28 02:16:38;;;;;;;20.00;6.80;;;;;;;13.01;69.69;94345.69;108324;1278;24304;-73
2024/03/28 02:19:12;;;;;;;32.20;7.50;;;;;;;13.01;69.56;94336.55;108276;1272;23430;-73
2024/03/28 02:21:50;;;;;;;36.90;8.90;;;;;;;13.00;69.43;94334.33;108350;1271;24195;-73
2024/03/28 02:24:20;;;;;;;30.70;7.70;;;;;;;12.97;69.22;94338.61;108315;1277;24221;-73
2024/03/28 02:26:51;;;;;;;25.70;7.40;;;;;;;12.98;69.16;94344.10;108323;1278;22536;-73
2024/03/28 02:29:22;;;;;;;37.20;8.60;;;;;;;12.98;69.05;94345.99;108314;1279;22575;-73
2024/03/28 02:31:53;;;;;;;28.50;7.20;;;;;;;12.95;69.02;94342.80;108342;1277;22636;-73
2024/03/28 02:34:26;;;;;;;35.20;8.40;;;;;;;12.99;68.89;94339.78;108296;1276;23500;-73
2024/03/28 02:36:57;;;;;;;28.20;7.20;;;;;;;13.02;68.70;94342.81;108347;1268;22628;-73
2024/03/28 02:39:27;;;;;;;26.20;6.50;;;;;;;13.05;68.60;94340.30;108295;1272;24429;-73
2024/03/28 02:41:58;;;;;;;24.40;7.20;;;;;;;13.06;68.48;94345.31;108313;1278;22935;-73
2024/03/28 02:44:29;;;;;;;54.80;11.00;;;;;;;13.05;68.40;94345.30;108301;1277;22525;-73
2024/03/28 02:47:00;;;;;;;38.30;9.80;;;;;;;13.02;68.28;94334.52;108314;1278;25424;-73
2024/03/28 02:49:34;;;;;;;38.30;7.60;;;;;;;12.95;68.30;94326.86;108315;1279;22555;-73
2024/03/28 02:52:07;;;;;;;41.70;9.60;;;;;;;12.92;68.28;94326.79;108323;1278;23288;-73
2024/03/28 02:54:45;;;;;;;26.30;6.70;;;;;;;12.87;68.32;94320.30;108260;1268;53325;-73
2024/03/28 02:57:27;;;;;;;40.80;8.40;;;;;;;12.81;68.25;94322.60;108357;1278;22545;-73
2024/03/28 02:59:58;;;;;;;37.30;7.60;;;;;;;12.80;68.39;94315.06;108327;1279;22565;-73
2024/03/28 03:02:31;;;;;;;27.00;6.60;;;;;;;12.83;68.32;94312.86;108309;1279;22537;-73
2024/03/28 03:05:01;;;;;;;34.00;8.50;;;;;;;12.80;68.34;94308.06;108254;1278;24741;-73
2024/03/28 03:07:35;;;;;;;36.40;9.20;;;;;;;12.77;68.37;94296.77;108334;1279;22527;-73
2024/03/28 03:10:06;;;;;;;35.80;8.60;;;;;;;12.79;68.26;94304.27;108319;1278;24211;-73
2024/03/28 03:12:39;;;;;;;36.20;8.50;;;;;;;12.88;68.26;94307.03;108295;1268;23286;-73
2024/03/28 03:15:13;;;;;;;27.60;6.60;;;;;;;12.98;68.10;94307.17;108242;1271;22519;-73
2024/03/28 03:17:47;;;;;;;28.40;6.40;;;;;;;13.01;67.98;94304.33;108318;1278;22526;-73
2024/03/28 03:20:28;;;;;;;35.70;7.30;;;;;;;13.02;67.87;94293.42;108342;1278;23874;-73
2024/03/28 03:23:04;;;;;;;45.80;9.70;;;;;;;13.04;67.73;94277.56;108309;1279;25275;-73
2024/03/28 03:25:59;;;;;;;39.20;9.00;;;;;;;13.00;67.72;94271.88;108355;1278;22926;-73
2024/03/28 03:37:07;;;;;;;32.30;8.20;;;;;;;13.02;67.52;94270.45;108335;1278;22862;-73
2024/03/28 03:39:38;;;;;;;28.80;7.10;;;;;;;13.04;67.20;94274.38;108347;1275;22572;-74
2024/03/28 03:42:10;;;;;;;29.00;7.60;;;;;;;13.06;67.05;94271.30;108315;1272;22542;-74
2024/03/28 03:44:44;;;;;;;38.70;7.80;;;;;;;13.07;66.88;94254.53;108286;1278;22604;-74
2024/03/28 03:47:22;;;;;;;30.30;6.90;;;;;;;13.05;66.83;94252.89;108320;1278;22696;-73
2024/03/28 03:49:53;;;;;;;29.60;7.40;;;;;;;12.99;66.79;94253.61;108304;1278;24003;-73
2024/03/28 03:52:25;;;;;;;30.60;7.00;;;;;;;12.93;66.81;94246.88;108340;1278;22526;-73
2024/03/28 03:54:58;;;;;;;29.10;6.80;;;;;;;12.86;66.81;94235.36;108327;1276;22564;-74
2024/03/28 03:57:31;;;;;;;34.80;6.70;;;;;;;12.84;66.83;94236.15;108361;1278;22531;-73
2024/03/28 04:00:02;;;;;;;29.50;7.20;;;;;;;12.77;66.82;94222.10;108298;1278;24286;-73
2024/03/28 04:02:35;;;;;;;33.30;6.40;;;;;;;12.66;66.95;94227.98;108341;1273;22556;-73
2024/03/28 04:05:09;;;;;;;27.90;6.10;;;;;;;12.54;67.16;94217.16;108289;1271;23484;-73
2024/03/28 04:07:42;;;;;;;24.90;7.00;;;;;;;12.45;67.16;94227.76;108303;1278;22522;-74
2024/03/28 04:10:13;;;;;;;30.10;5.80;;;;;;;12.44;67.76;94231.08;108349;1278;23848;-74
2024/03/28 04:12:43;;;;;;;28.60;6.70;;;;;;;12.70;68.03;94228.34;108310;1277;22555;-74
2024/03/28 04:15:14;;;;;;;31.60;7.40;;;;;;;12.79;67.68;94232.98;108333;1277;22530;-74
2024/03/28 04:17:45;;;;;;;23.70;7.40;;;;;;;12.77;67.64;94233.04;108336;1278;22627;-73
2024/03/28 04:20:16;;;;;;;35.90;9.10;;;;;;;12.80;67.70;94222.31;108276;1276;22526;-74
2024/03/28 04:22:48;;;;;;;38.20;9.10;;;;;;;12.83;67.75;94223.67;108324;1278;22562;-74
2024/03/28 04:25:22;;;;;;;28.90;6.20;;;;;;;12.89;67.67;94216.41;108326;1278;22538;-74
2024/03/28 04:28:03;;;;;;;24.90;6.70;;;;;;;12.95;67.66;94219.55;108399;1278;23715;-74
2024/03/28 04:30:36;;;;;;;32.20;7.70;;;;;;;12.98;67.39;94202.55;108300;1278;22521;-74
2024/03/28 04:33:09;;;;;;;30.00;7.30;;;;;;;13.05;67.26;94205.23;108314;1279;22542;-73
2024/03/28 04:35:40;;;;;;;30.70;7.20;;;;;;;13.04;67.11;94221.26;108289;1273;24211;-74
2024/03/28 04:38:12;;;;;;;39.30;9.00;;;;;;;12.95;67.00;94212.34;108337;1278;24204;-73
2024/03/28 04:40:46;;;;;;;21.20;7.00;;;;;;;12.77;67.14;94211.86;108322;1279;25584;-74
2024/03/28 04:43:19;;;;;;;27.70;7.30;;;;;;;12.65;67.70;94215.85;108319;1278;25292;-74
2024/03/28 04:45:53;;;;;;;28.40;7.10;;;;;;;12.67;67.81;94199.73;108321;1277;22529;-73
2024/03/28 04:48:26;;;;;;;34.10;9.10;;;;;;;12.71;68.10;94213.18;108306;1271;22583;-73
2024/03/28 04:50:58;;;;;;;28.00;5.90;;;;;;;12.70;68.07;94213.85;108307;1276;23506;-73
2024/03/28 04:53:29;;;;;;;25.50;6.00;;;;;;;12.68;68.08;94230.44;108327;1268;22561;-74
2024/03/28 04:56:03;;;;;;;21.10;5.90;;;;;;;12.71;68.09;94229.27;108290;1279;22538;-74
2024/03/28 04:58:36;;;;;;;25.70;7.80;;;;;;;12.73;68.20;94221.81;108302;1277;22526;-74
2024/03/28 05:01:10;;;;;;;26.40;7.10;;;;;;;12.73;68.20;94210.70;108322;1278;22704;-74
2024/03/28 05:03:41;;;;;;;26.80;5.70;;;;;;;12.65;68.17;94205.21;108331;1278;24490;-73
2024/03/28 05:06:13;;;;;;;23.10;5.80;;;;;;;12.57;68.32;94217.00;108238;1278;22535;-74
2024/03/28 05:08:46;;;;;;;24.80;6.00;;;;;;;12.50;68.44;94221.02;108382;1260;22537;-73
2024/03/28 05:11:23;;;;;;;23.00;5.50;;;;;;;12.57;68.71;94205.76;108334;1277;22573;-74
2024/03/28 05:13:54;;;;;;;17.40;4.70;;;;;;;12.72;68.56;94205.45;108401;1278;23735;-74
2024/03/28 05:16:28;;;;;;;20.20;5.20;;;;;;;12.84;68.44;94224.14;108254;1275;24489;-73
2024/03/28 05:19:03;;;;;;;19.80;5.90;;;;;;;12.82;68.58;94247.41;108289;1277;22574;-73
2024/03/28 05:21:42;;;;;;;16.00;4.80;;;;;;;12.75;68.67;94245.98;108292;1278;22554;-74
2024/03/28 05:24:20;;;;;;;16.20;4.40;;;;;;;12.74;68.78;94256.23;108297;1277;22505;-74
2024/03/28 05:26:52;;;;;;;13.90;4.20;;;;;;;12.94;68.85;94263.77;108278;1274;22539;-73
2024/03/28 05:29:25;;;;;;;15.60;4.70;;;;;;;13.14;68.26;94248.50;108324;1278;22474;-73
2024/03/28 05:31:58;;;;;;;15.30;4.90;;;;;;;13.17;67.85;94261.70;108299;1271;22533;-73
2024/03/28 05:34:28;;;;;;;14.70;4.70;;;;;;;13.17;67.64;94270.83;108281;1278;22533;-74
2024/03/28 05:36:59;;;;;;;19.80;4.50;;;;;;;13.16;67.67;94263.44;108285;1278;22521;-73
2024/03/28 05:39:33;;;;;;;14.50;4.50;;;;;;;13.18;67.67;94250.88;108310;1277;22555;-73
2024/03/28 05:42:06;;;;;;;11.70;3.60;;;;;;;13.25;67.63;94258.99;108306;1278;24036;-73
2024/03/28 05:44:38;;;;;;;15.20;4.30;;;;;;;13.35;67.57;94269.52;108302;1277;23511;-73
2024/03/28 05:47:14;;;;;;;23.20;5.10;;;;;;;13.41;67.53;94281.73;108325;1277;22726;-73
2024/03/28 05:49:44;;;;;;;20.00;4.30;;;;;;;13.47;67.34;94278.33;108334;1278;22530;-73
2024/03/28 05:52:16;;;;;;;21.70;4.40;;;;;;;13.48;67.19;94281.77;108243;1271;25909;-73
2024/03/28 05:54:49;;;;;;;17.30;5.40;;;;;;;13.45;67.19;94283.84;108369;1267;22542;-73
2024/03/28 05:57:20;;;;;;;14.60;4.00;;;;;;;13.46;67.30;94284.00;108363;1271;22561;-73
2024/03/28 05:59:50;;;;;;;14.50;5.10;;;;;;;13.42;67.27;94271.78;108317;1276;22570;-73
2024/03/28 06:02:24;;;;;;;15.70;4.60;;;;;;;13.35;67.24;94270.19;108364;1277;24284;-73
2024/03/28 06:04:55;;;;;;;22.50;5.10;;;;;;;13.27;67.34;94271.20;108308;1275;26463;-73
2024/03/28 06:07:28;;;;;;;14.50;3.90;;;;;;;13.21;67.48;94272.21;108328;1272;143264;-73
2024/03/28 06:10:01;;;;;;;17.40;4.70;;;;;;;13.18;67.58;94272.52;108373;1277;23847;-72
2024/03/28 06:12:34;;;;;;;17.50;4.90;;;;;;;13.14;67.65;94266.21;108370;1273;23836;-73
2024/03/28 06:15:05;;;;;;;17.80;4.90;;;;;;;13.11;67.75;94268.12;108378;1278;25339;-73
2024/03/28 06:17:37;;;;;;;12.90;4.30;;;;;;;13.06;67.84;94269.85;108345;1277;25282;-73
2024/03/28 06:20:16;;;;;;;13.90;4.40;;;;;;;13.06;68.11;94258.69;108389;1277;22524;-73
2024/03/28 06:22:47;;;;;;;14.70;4.20;;;;;;;13.08;68.19;94239.57;108321;1278;22842;-73
2024/03/28 06:25:18;;;;;;;16.60;4.90;;;;;;;13.10;68.51;94238.41;108315;1277;22706;-73
2024/03/28 06:27:49;;;;;;;15.20;4.80;;;;;;;13.13;68.83;94238.15;108386;1276;23084;-73
2024/03/28 06:30:25;;;;;;;22.50;5.80;;;;;;;13.14;68.94;94242.88;108373;1276;22682;-73
2024/03/28 06:32:57;;;;;;;20.70;5.60;;;;;;;13.14;68.70;94253.42;108389;1257;22615;-74
2024/03/28 06:35:29;;;;;;;14.30;4.50;;;;;;;13.14;68.65;94251.17;108340;1272;24239;-73
2024/03/28 06:37:59;;;;;;;13.10;3.20;;;;;;;13.14;68.52;94252.89;108350;1271;22546;-73
2024/03/28 06:40:36;;;;;;;17.00;3.90;;;;;;;13.10;68.48;94261.73;108365;1276;25308;-73
2024/03/28 06:43:07;;;;;;;12.80;3.90;;;;;;;13.06;68.58;94270.30;108446;1278;22623;-72
2024/03/28 06:45:38;;;;;;;15.00;3.00;;;;;;;13.05;68.79;94278.72;108332;1273;24441;-73
2024/03/28 06:48:12;;;;;;;10.60;3.10;;;;;;;13.03;68.92;94289.87;108366;1277;23756;-73
2024/03/28 06:50:44;;;;;;;10.00;3.30;;;;;;;13.00;69.21;94295.20;108373;1277;25247;-73
2024/03/28 06:53:16;;;;;;;11.80;3.10;;;;;;;12.99;69.33;94292.60;108329;1276;26387;-73
2024/03/28 06:55:49;;;;;;;12.90;3.90;;;;;;;13.00;69.32;94286.46;108328;1273;22538;-73
2024/03/28 06:58:20;;;;;;;16.50;4.50;;;;;;;13.08;69.28;94286.23;108192;1272;23308;-73
2024/03/28 07:00:58;;;;;;;12.10;4.30;;;;;;;13.18;69.20;94295.79;108336;1270;23876;-73
2024/03/28 07:03:31;;;;;;;9.00;2.90;;;;;;;13.30;68.94;94298.85;108214;1271;22882;-73
2024/03/28 07:06:04;;;;;;;12.10;3.50;;;;;;;13.42;68.61;94298.31;108265;1276;25304;-73
2024/03/28 07:08:37;;;;;;;9.40;2.80;;;;;;;13.53;68.42;94301.95;108369;1272;22526;-73
2024/03/28 07:11:10;;;;;;;8.50;2.70;;;;;;;13.57;68.07;94300.95;108418;1277;23039;-73
2024/03/28 07:13:41;;;;;;;9.50;2.70;;;;;;;13.61;68.10;94288.46;108389;1273;22567;-73
2024/03/28 07:16:14;;;;;;;10.60;3.30;;;;;;;13.71;68.08;94279.81;108344;1272;22664;-73
2024/03/28 07:18:48;;;;;;;8.20;2.50;;;;;;;13.81;68.25;94275.58;108355;1277;22526;-73
2024/03/28 07:21:19;;;;;;;10.00;3.20;;;;;;;13.93;68.31;94265.95;108296;1279;22563;-74
2024/03/28 07:23:51;;;;;;;8.10;2.90;;;;;;;14.64;69.25;94268.00;108398;1278;22529;-73
2024/03/28 07:26:24;;;;;;;15.30;3.40;;;;;;;15.92;68.30;94269.15;108361;1277;22529;-73
2024/03/28 07:28:57;;;;;;;5.60;2.00;;;;;;;16.57;66.24;94272.39;108343;1276;25171;-73
2024/03/28 07:31:30;;;;;;;7.70;2.50;;;;;;;17.62;65.02;94264.72;108417;1276;22576;-73
2024/03/28 07:34:01;;;;;;;10.50;3.00;;;;;;;17.83;61.04;94269.14;108142;1270;22516;-73
2024/03/28 07:36:33;;;;;;;8.20;2.10;;;;;;;17.12;60.66;94273.38;108223;1276;22526;-74
2024/03/28 07:39:04;;;;;;;10.00;2.40;;;;;;;16.71;60.86;94272.58;108318;1278;22519;-73
2024/03/28 07:41:38;;;;;;;9.20;2.30;;;;;;;16.50;61.20;94269.36;108255;1273;23035;-73
2024/03/28 07:44:11;;;;;;;6.90;2.40;;;;;;;16.48;61.42;94265.52;108337;1278;24224;-73
2024/03/28 07:46:44;;;;;;;7.30;2.50;;;;;;;17.26;61.60;94257.14;108350;1278;25061;-73
2024/03/28 07:49:19;;;;;;;8.20;2.20;;;;;;;17.65;59.82;94258.31;108363;1257;22542;-73
2024/03/28 07:51:52;;;;;;;7.50;2.30;;;;;;;17.62;59.80;94269.48;108339;1274;22531;-73
2024/03/28 07:54:26;;;;;;;9.20;2.40;;;;;;;17.57;59.50;94267.63;108267;1272;25304;-74
2024/03/28 07:56:59;;;;;;;7.50;2.60;;;;;;;17.49;59.45;94267.61;108215;1270;26420;-74
2024/03/28 07:59:31;;;;;;;6.60;2.70;;;;;;;17.32;59.49;94266.95;108235;1278;22532;-73
2024/03/28 08:02:06;;;;;;;7.70;2.10;;;;;;;17.02;59.09;94277.54;108249;1271;22568;-73
2024/03/28 08:04:39;;;;;;;5.90;2.10;;;;;;;16.45;58.78;94279.48;108454;1278;22536;-73
2024/03/28 08:07:13;;;;;;;5.90;1.90;;;;;;;15.91;59.26;94271.58;108371;1278;22517;-73
2024/03/28 08:09:46;;;;;;;4.50;2.20;;;;;;;15.85;59.93;94262.45;108489;1278;23806;-73
2024/03/28 08:12:18;;;;;;;5.40;1.90;;;;;;;16.00;60.46;94264.34;108389;1277;22652;-73
2024/03/28 08:14:51;;;;;;;7.20;1.60;;;;;;;16.35;60.92;94258.71;108424;1277;23793;-73
2024/03/28 08:17:22;;;;;;;6.10;1.50;;;;;;;16.56;60.04;94269.93;108430;1278;24233;-73
2024/03/28 08:19:56;;;;;;;7.10;1.80;;;;;;;16.28;59.48;94287.77;108392;1278;22635;-73
2024/03/28 08:22:30;;;;;;;5.10;1.50;;;;;;;16.20;59.79;94298.34;108380;1278;22666;-73
2024/03/28 08:25:01;;;;;;;5.40;1.50;;;;;;;16.24;59.70;94300.51;108397;1278;22652;-73
2024/03/28 08:27:34;;;;;;;4.80;1.60;;;;;;;16.08;59.54;94308.38;108449;1278;23546;-73
2024/03/28 08:30:07;;;;;;;3.60;1.40;;;;;;;15.70;59.59;94307.58;108515;1278;25633;-73
2024/03/28 08:32:39;;;;;;;4.00;1.70;;;;;;;15.38;59.68;94316.67;108486;1276;25138;-73
2024/03/28 08:35:16;;;;;;;4.70;0.80;;;;;;;15.09;59.92;94329.13;108461;1278;22531;-73
2024/03/28 08:37:49;;;;;;;4.70;1.10;;;;;;;14.73;60.64;94335.66;108360;1278;25236;-72
2024/03/28 08:40:27;;;;;;;2.70;1.10;;;;;;;14.41;61.83;94339.88;108447;1278;22531;-73
2024/03/28 08:43:00;;;;;;;3.70;1.50;;;;;;;14.20;62.96;94330.41;108424;1273;22583;-73
2024/03/28 08:45:38;;;;;;;5.80;1.20;;;;;;;14.48;64.74;94336.33;108393;1278;23550;-73
2024/03/28 08:48:14;;;;;;;3.50;1.60;;;;;;;15.52;64.95;94340.86;108460;1276;22619;-73
2024/03/28 08:50:49;;;;;;;5.60;1.70;;;;;;;15.61;63.47;94341.35;108432;1278;22616;-73
2024/03/28 08:53:20;;;;;;;8.00;2.10;;;;;;;15.48;63.63;94352.94;108485;1255;22525;-73
2024/03/28 08:55:52;;;;;;;6.70;1.80;;;;;;;15.54;63.74;94357.51;108399;1278;22582;-73
2024/03/28 08:58:26;;;;;;;5.00;1.60;;;;;;;15.58;63.86;94351.83;108448;1275;22659;-73
2024/03/28 09:01:00;;;;;;;5.70;1.40;;;;;;;15.55;63.47;94354.85;108485;1273;22608;-72
2024/03/28 09:03:38;;;;;;;3.90;1.50;;;;;;;15.29;62.80;94360.11;108427;1277;22542;-71
2024/03/28 09:06:13;;;;;;;3.20;1.20;;;;;;;14.81;63.18;94371.51;108362;1278;54622;-73
2024/03/28 09:08:47;;;;;;;5.80;1.40;;;;;;;14.45;63.98;94375.37;108400;1274;24182;-73
2024/03/28 09:11:30;;;;;;;6.50;2.10;;;;;;;14.34;64.56;94379.44;108451;1270;25404;-72
2024/03/28 09:14:06;;;;;;;3.50;1.20;;;;;;;14.12;66.46;94378.69;108523;1278;22659;-73
2024/03/28 09:16:41;;;;;;;5.80;1.90;;;;;;;13.56;67.14;94383.30;108466;1278;22526;-73
2024/03/28 09:19:18;;;;;;;6.50;2.10;;;;;;;13.22;68.49;94395.08;108485;1278;22521;-72
2024/03/28 09:21:50;;;;;;;3.80;1.40;;;;;;;13.19;68.86;94386.56;108386;1278;22533;-73
2024/03/28 09:24:26;;;;;;;5.40;2.30;;;;;;;13.19;68.42;94390.38;108522;1278;23309;-72
2024/03/28 09:27:18;;;;;;;2.50;1.00;;;;;;;13.19;68.09;94393.71;108370;1277;23745;-73
2024/03/28 09:29:52;;;;;;;3.30;0.90;;;;;;;13.37;67.99;94388.85;108482;1273;21915;-73
2024/03/28 09:32:23;;;;;;;5.10;1.00;;;;;;;13.46;67.18;94389.40;108424;1275;25268;-72
2024/03/28 09:34:58;;;;;;;2.90;1.30;;;;;;;13.67;67.05;94402.84;108408;1278;24416;-72
2024/03/28 09:37:32;;;;;;;2.00;0.60;;;;;;;13.86;65.56;94410.34;108386;1278;22521;-75
2024/03/28 09:40:09;;;;;;;1.10;0.40;;;;;;;13.77;63.53;94400.27;108517;1270;23675;-74
2024/03/28 09:42:43;;;;;;;2.00;0.70;;;;;;;13.74;62.81;94410.95;108389;1277;23045;-73
2024/03/28 09:45:20;;;;;;;1.00;0.80;;;;;;;13.88;62.56;94406.14;108453;1277;22546;-73
2024/03/28 09:47:56;;;;;;;3.80;0.90;;;;;;;14.11;62.06;94409.36;108441;1273;23939;-72
2024/03/28 09:50:31;;;;;;;2.70;1.00;;;;;;;14.25;61.04;94408.30;108424;1273;22578;-73
2024/03/28 09:53:04;;;;;;;2.50;0.50;;;;;;;14.29;59.11;94413.86;108442;1262;22589;-73
2024/03/28 09:55:38;;;;;;;1.50;0.50;;;;;;;14.40;58.87;94412.89;108466;1278;24214;-73
2024/03/28 09:58:14;;;;;;;4.30;0.60;;;;;;;14.41;57.12;94425.64;108435;1270;22534;-72
2024/03/28 10:00:48;;;;;;;2.20;0.70;;;;;;;14.40;55.45;94437.05;108447;1278;24203;-73
2024/03/28 10:03:30;;;;;;;1.30;0.70;;;;;;;14.48;55.94;94456.85;108421;1273;22519;-72
2024/03/28 10:06:03;;;;;;;0.70;0.40;;;;;;;14.54;53.17;94456.82;108471;1271;22515;-72
2024/03/28 10:08:35;;;;;;;2.10;0.40;;;;;;;14.40;52.46;94474.91;108431;1273;22560;-72
2024/03/28 10:11:12;;;;;;;1.10;0.40;;;;;;;14.42;52.26;94475.16;108481;1274;23637;-73
2024/03/28 10:13:46;;;;;;;2.20;1.20;;;;;;;14.58;51.98;94470.83;108483;1274;22548;-73
2024/03/28 10:16:22;;;;;;;1.90;0.90;;;;;;;14.69;51.61;94484.04;108331;1276;22532;-72
2024/03/28 10:18:59;;;;;;;1.90;0.80;;;;;;;14.72;51.43;94490.64;108429;1273;22538;-72
2024/03/28 10:21:36;;;;;;;3.70;0.50;;;;;;;14.65;51.56;94493.87;108433;1276;25742;-72
2024/03/28 10:24:17;;;;;;;1.10;0.50;;;;;;;14.66;51.01;94489.25;108523;1271;25288;-72
2024/03/28 10:26:49;;;;;;;1.30;0.50;;;;;;;14.76;51.44;94497.72;108422;1260;25422;-73
2024/03/28 10:29:23;;;;;;;2.60;0.60;;;;;;;14.86;50.58;94488.58;108489;1271;22547;-72
2024/03/28 10:32:06;;;;;;;1.40;0.60;;;;;;;14.81;50.81;94495.97;108418;1270;25291;-72
2024/03/28 10:34:40;;;;;;;0.90;0.40;;;;;;;14.88;51.39;94508.41;108440;1254;22530;-72
2024/03/28 10:37:14;;;;;;;3.00;0.50;;;;;;;14.83;50.33;94510.10;108342;1270;22528;-73
2024/03/28 10:39:49;;;;;;;1.30;0.40;;;;;;;14.65;50.75;94511.86;108471;1270;22575;-72
2024/03/28 10:42:25;;;;;;;0.70;0.40;;;;;;;14.56;49.99;94501.56;108435;1270;22564;-72
2024/03/28 10:45:09;;;;;;;0.20;0.20;;;;;;;14.50;49.49;94513.27;108403;1270;24248;-72
2024/03/28 10:47:44;;;;;;;1.40;0.20;;;;;;;14.47;48.57;94504.73;108485;1271;22563;-73
2024/03/28 10:50:22;;;;;;;1.10;0.50;;;;;;;14.34;47.91;94500.59;108429;1278;22540;-72
2024/03/28 10:52:56;;;;;;;2.00;0.60;;;;;;;14.33;48.07;94498.14;108363;1277;22526;-73
2024/03/28 10:55:35;;;;;;;0.90;0.30;;;;;;;14.52;47.96;94493.80;108383;1276;28772;-72
2024/03/28 10:58:08;;;;;;;1.40;0.50;;;;;;;14.76;48.04;94504.49;108361;1271;23831;-72
2024/03/28 11:00:42;;;;;;;2.30;0.30;;;;;;;14.92;48.19;94516.05;108398;1273;22628;-73
2024/03/28 11:03:13;;;;;;;1.90;0.30;;;;;;;15.02;48.01;94499.04;108402;1271;22531;-72
2024/03/28 11:05:47;;;;;;;1.90;0.50;;;;;;;15.11;48.05;94504.98;108364;1270;22535;-72
2024/03/28 11:08:23;;;;;;;0.40;0.30;;;;;;;15.27;48.60;94515.98;108470;1272;24380;-72
2024/03/28 11:10:56;;;;;;;0.60;0.30;;;;;;;15.43;46.77;94506.52;108449;1272;22709;-72
2024/03/28 11:13:32;;;;;;;1.50;0.30;;;;;;;15.38;45.94;94517.36;108337;1271;22583;-72
2024/03/28 11:16:07;;;;;;;0.80;0.30;;;;;;;15.10;43.70;94518.45;108402;1270;22807;-72
2024/03/28 11:18:46;;;;;;;0.40;0.20;;;;;;;15.15;45.65;94520.91;108415;1277;22525;-72
2024/03/28 11:21:29;;;;;;;0.90;0.20;;;;;;;15.47;44.47;94516.89;108345;1271;22521;-72
2024/03/28 11:24:05;;;;;;;1.00;0.40;;;;;;;15.50;42.67;94527.39;108471;1272;22534;-73
2024/03/28 11:26:36;;;;;;;0.40;0.30;;;;;;;15.37;42.75;94527.73;108380;1270;22574;-73
2024/03/28 11:29:11;;;;;;;1.20;0.60;;;;;;;15.27;42.65;94503.48;108428;1270;23057;-73
2024/03/28 11:31:42;;;;;;;2.00;0.40;;;;;;;15.27;43.80;94530.16;108421;1272;22790;-72
2024/03/28 11:34:14;;;;;;;1.00;0.20;;;;;;;15.46;44.59;94537.17;108368;1274;22522;-72
2024/03/28 11:36:44;;;;;;;1.90;0.40;;;;;;;15.64;43.26;94537.23;108304;1270;24373;-73
2024/03/28 11:39:18;;;;;;;0.70;0.60;;;;;;;15.79;43.83;94529.56;108348;1271;22515;-72
2024/03/28 11:41:49;;;;;;;3.00;0.20;;;;;;;15.98;41.54;94531.48;108360;1271;23983;-73
2024/03/28 11:44:23;;;;;;;2.00;0.10;;;;;;;15.72;40.38;94522.75;108444;1271;22519;-72
2024/03/28 11:47:04;;;;;;;0.20;0.10;;;;;;;15.31;41.52;94550.13;108434;1277;22543;-72
2024/03/28 11:49:37;;;;;;;1.20;0.30;;;;;;;15.02;42.25;94557.83;108486;1270;22621;-72
2024/03/28 11:52:10;;;;;;;0.60;0.20;;;;;;;14.77;43.33;94563.88;108378;1271;22546;-72
2024/03/28 11:54:46;;;;;;;0.40;0.20;;;;;;;14.86;44.01;94565.63;108398;1270;27203;-72
2024/03/28 11:57:23;;;;;;;1.30;0.40;;;;;;;15.08;43.84;94554.58;108438;1270;22569;-73